sensor_id;sensor_type;location;lat;lon;timestamp;P1;durP1;ratioP1;P2;durP2;ratioP2
58338;SDS011;48278;52.704;6.536;2022-08-01T00:01:56;17.33;;;6.67;;
58338;SDS011;48278;52.704;6.536;2022-08-01T00:04:21;17.67;;;6.60;;
58338;SDS011;48278;52.704;6.536;2022-08-01T00:06:47;12.57;;;6.00;;
58338;SDS011;48278;52.704;6.536;2022-08-01T00:09:13;15.60;;;6.30;;
58338;SDS011;48278;52.704;6.536;2022-08-01T00:11:38;14.97;;;6.50;;
58338;SDS011;48278;52.704;6.536;2022-08-01T00:14:04;16.47;;;7.13;;
58338;SDS011;48278;52.704;6.536;2022-08-01T00:16:30;16.47;;;7.73;;
58338;SDS011;48278;52.704;6.536;2022-08-01T00:18:56;15.87;;;7.63;;
58338;SDS011;48278;52.704;6.536;2022-08-01T00:21:22;20.77;;;8.67;;
58338;SDS011;48278;52.704;6.536;2022-08-01T00:23:48;16.73;;;7.95;;
58338;SDS011;48278;52.704;6.536;2022-08-01T00:26:13;19.70;;;8.63;;
58338;SDS011;48278;52.704;6.536;2022-08-01T00:28:40;18.83;;;7.70;;
58338;SDS011;48278;52.704;6.536;2022-08-01T00:31:06;19.20;;;7.93;;
58338;SDS011;48278;52.704;6.536;2022-08-01T00:33:32;18.90;;;7.72;;
58338;SDS011;48278;52.704;6.536;2022-08-01T00:35:58;16.07;;;7.07;;
58338;SDS011;48278;52.704;6.536;2022-08-01T00:38:23;17.80;;;7.90;;
58338;SDS011;48278;52.704;6.536;2022-08-01T00:40:49;23.37;;;8.97;;
58338;SDS011;48278;52.704;6.536;2022-08-01T00:43:15;16.70;;;7.83;;
58338;SDS011;48278;52.704;6.536;2022-08-01T00:45:41;16.00;;;8.17;;
58338;SDS011;48278;52.704;6.536;2022-08-01T00:48:07;18.93;;;8.33;;
58338;SDS011;48278;52.704;6.536;2022-08-01T00:50:33;17.50;;;8.23;;
58338;SDS011;48278;52.704;6.536;2022-08-01T00:52:59;15.98;;;8.23;;
58338;SDS011;48278;52.704;6.536;2022-08-01T00:55:28;18.70;;;8.20;;
58338;SDS011;48278;52.704;6.536;2022-08-01T00:57:56;16.35;;;7.80;;
58338;SDS011;48278;52.704;6.536;2022-08-01T01:00:23;17.27;;;7.22;;
58338;SDS011;48278;52.704;6.536;2022-08-01T01:02:48;17.93;;;8.33;;
58338;SDS011;48278;52.704;6.536;2022-08-01T01:05:14;17.33;;;7.10;;
58338;SDS011;48278;52.704;6.536;2022-08-01T01:07:53;16.30;;;7.57;;
58338;SDS011;48278;52.704;6.536;2022-08-01T01:13:23;18.00;;;7.63;;
58338;SDS011;48278;52.704;6.536;2022-08-01T01:15:57;16.98;;;7.35;;
58338;SDS011;48278;52.704;6.536;2022-08-01T01:21:04;16.23;;;7.97;;
58338;SDS011;48278;52.704;6.536;2022-08-01T01:26:26;18.23;;;7.57;;
58338;SDS011;48278;52.704;6.536;2022-08-01T01:29:13;15.55;;;7.25;;
58338;SDS011;48278;52.704;6.536;2022-08-01T01:31:50;14.18;;;6.57;;
58338;SDS011;48278;52.704;6.536;2022-08-01T01:34:21;19.38;;;7.35;;
58338;SDS011;48278;52.704;6.536;2022-08-01T01:36:48;13.25;;;6.72;;
58338;SDS011;48278;52.704;6.536;2022-08-01T01:39:17;15.45;;;6.90;;
58338;SDS011;48278;52.704;6.536;2022-08-01T01:41:45;14.75;;;6.63;;
58338;SDS011;48278;52.704;6.536;2022-08-01T01:44:12;13.18;;;6.25;;
58338;SDS011;48278;52.704;6.536;2022-08-01T01:46:40;17.42;;;7.00;;
58338;SDS011;48278;52.704;6.536;2022-08-01T01:49:07;11.65;;;6.28;;
58338;SDS011;48278;52.704;6.536;2022-08-01T01:51:38;16.48;;;6.30;;
58338;SDS011;48278;52.704;6.536;2022-08-01T01:54:05;15.45;;;6.53;;
58338;SDS011;48278;52.704;6.536;2022-08-01T01:56:33;13.07;;;6.65;;
58338;SDS011;48278;52.704;6.536;2022-08-01T01:59:13;13.02;;;6.50;;
58338;SDS011;48278;52.704;6.536;2022-08-01T02:01:44;14.55;;;6.60;;
58338;SDS011;48278;52.704;6.536;2022-08-01T02:04:13;14.90;;;6.63;;
58338;SDS011;48278;52.704;6.536;2022-08-01T02:06:39;14.52;;;7.32;;
58338;SDS011;48278;52.704;6.536;2022-08-01T02:09:07;14.02;;;6.85;;
58338;SDS011;48278;52.704;6.536;2022-08-01T02:11:35;17.98;;;7.22;;
58338;SDS011;48278;52.704;6.536;2022-08-01T02:14:02;19.77;;;7.55;;
58338;SDS011;48278;52.704;6.536;2022-08-01T02:18:58;21.17;;;7.38;;
58338;SDS011;48278;52.704;6.536;2022-08-01T02:21:26;15.88;;;7.20;;
58338;SDS011;48278;52.704;6.536;2022-08-01T02:27:00;17.48;;;7.38;;
58338;SDS011;48278;52.704;6.536;2022-08-01T02:29:33;15.90;;;6.85;;
58338;SDS011;48278;52.704;6.536;2022-08-01T02:32:04;14.20;;;7.03;;
58338;SDS011;48278;52.704;6.536;2022-08-01T02:34:31;16.70;;;6.97;;
58338;SDS011;48278;52.704;6.536;2022-08-01T02:37:00;15.27;;;7.45;;
58338;SDS011;48278;52.704;6.536;2022-08-01T02:41:55;13.25;;;6.40;;
58338;SDS011;48278;52.704;6.536;2022-08-01T02:44:24;11.18;;;5.30;;
58338;SDS011;48278;52.704;6.536;2022-08-01T02:46:59;12.77;;;5.63;;
58338;SDS011;48278;52.704;6.536;2022-08-01T02:49:29;12.98;;;5.65;;
58338;SDS011;48278;52.704;6.536;2022-08-01T02:51:59;11.20;;;4.95;;
58338;SDS011;48278;52.704;6.536;2022-08-01T02:54:26;13.15;;;5.50;;
58338;SDS011;48278;52.704;6.536;2022-08-01T02:56:56;14.63;;;5.18;;
58338;SDS011;48278;52.704;6.536;2022-08-01T03:01:51;9.93;;;4.63;;
58338;SDS011;48278;52.704;6.536;2022-08-01T03:04:22;11.80;;;5.03;;
58338;SDS011;48278;52.704;6.536;2022-08-01T03:06:49;12.70;;;5.82;;
58338;SDS011;48278;52.704;6.536;2022-08-01T03:09:17;13.15;;;5.78;;
58338;SDS011;48278;52.704;6.536;2022-08-01T03:11:44;12.70;;;5.80;;
58338;SDS011;48278;52.704;6.536;2022-08-01T03:14:11;10.93;;;5.22;;
58338;SDS011;48278;52.704;6.536;2022-08-01T03:16:39;13.00;;;5.70;;
58338;SDS011;48278;52.704;6.536;2022-08-01T03:19:07;12.82;;;6.00;;
58338;SDS011;48278;52.704;6.536;2022-08-01T03:21:35;14.50;;;6.22;;
58338;SDS011;48278;52.704;6.536;2022-08-01T03:24:03;9.68;;;5.20;;
58338;SDS011;48278;52.704;6.536;2022-08-01T03:26:30;11.43;;;4.53;;
58338;SDS011;48278;52.704;6.536;2022-08-01T03:29:02;11.18;;;5.10;;
58338;SDS011;48278;52.704;6.536;2022-08-01T03:31:37;8.77;;;4.07;;
58338;SDS011;48278;52.704;6.536;2022-08-01T03:34:03;8.50;;;3.72;;
58338;SDS011;48278;52.704;6.536;2022-08-01T03:36:31;8.70;;;4.03;;
58338;SDS011;48278;52.704;6.536;2022-08-01T03:39:00;9.88;;;4.22;;
58338;SDS011;48278;52.704;6.536;2022-08-01T03:41:29;12.48;;;3.40;;
58338;SDS011;48278;52.704;6.536;2022-08-01T03:44:07;9.90;;;3.15;;
58338;SDS011;48278;52.704;6.536;2022-08-01T03:46:48;8.50;;;3.40;;
58338;SDS011;48278;52.704;6.536;2022-08-01T03:49:17;7.13;;;2.93;;
58338;SDS011;48278;52.704;6.536;2022-08-01T03:51:49;9.32;;;3.25;;
58338;SDS011;48278;52.704;6.536;2022-08-01T03:54:17;7.35;;;2.30;;
58338;SDS011;48278;52.704;6.536;2022-08-01T03:56:47;12.23;;;2.72;;
58338;SDS011;48278;52.704;6.536;2022-08-01T03:59:16;9.00;;;3.03;;
58338;SDS011;48278;52.704;6.536;2022-08-01T04:01:43;7.82;;;2.47;;
58338;SDS011;48278;52.704;6.536;2022-08-01T04:04:09;10.95;;;2.53;;
58338;SDS011;48278;52.704;6.536;2022-08-01T04:06:39;6.50;;;2.30;;
58338;SDS011;48278;52.704;6.536;2022-08-01T04:09:07;10.88;;;2.83;;
58338;SDS011;48278;52.704;6.536;2022-08-01T04:13:58;6.07;;;2.70;;
58338;SDS011;48278;52.704;6.536;2022-08-01T04:16:24;7.30;;;2.60;;
58338;SDS011;48278;52.704;6.536;2022-08-01T04:18:50;11.03;;;2.30;;
58338;SDS011;48278;52.704;6.536;2022-08-01T04:21:17;10.23;;;2.60;;
58338;SDS011;48278;52.704;6.536;2022-08-01T04:23:47;11.05;;;2.65;;
58338;SDS011;48278;52.704;6.536;2022-08-01T04:26:14;7.82;;;2.47;;
58338;SDS011;48278;52.704;6.536;2022-08-01T04:31:08;9.13;;;2.70;;
58338;SDS011;48278;52.704;6.536;2022-08-01T04:33:37;10.93;;;3.10;;
58338;SDS011;48278;52.704;6.536;2022-08-01T04:36:05;12.13;;;2.60;;
58338;SDS011;48278;52.704;6.536;2022-08-01T04:38:34;9.25;;;2.50;;
58338;SDS011;48278;52.704;6.536;2022-08-01T04:41:03;7.35;;;2.30;;
58338;SDS011;48278;52.704;6.536;2022-08-01T04:43:31;6.88;;;2.58;;
58338;SDS011;48278;52.704;6.536;2022-08-01T04:45:58;11.05;;;2.70;;
58338;SDS011;48278;52.704;6.536;2022-08-01T04:48:24;12.35;;;2.75;;
58338;SDS011;48278;52.704;6.536;2022-08-01T04:50:51;9.95;;;2.95;;
58338;SDS011;48278;52.704;6.536;2022-08-01T04:53:17;11.17;;;3.07;;
58338;SDS011;48278;52.704;6.536;2022-08-01T04:55:44;10.15;;;3.28;;
58338;SDS011;48278;52.704;6.536;2022-08-01T04:58:16;8.75;;;2.70;;
58338;SDS011;48278;52.704;6.536;2022-08-01T05:00:42;10.07;;;2.95;;
58338;SDS011;48278;52.704;6.536;2022-08-01T05:03:08;9.53;;;2.47;;
58338;SDS011;48278;52.704;6.536;2022-08-01T05:05:34;12.00;;;3.20;;
58338;SDS011;48278;52.704;6.536;2022-08-01T05:08:00;12.10;;;3.60;;
58338;SDS011;48278;52.704;6.536;2022-08-01T05:10:26;12.30;;;3.00;;
58338;SDS011;48278;52.704;6.536;2022-08-01T05:12:52;14.27;;;3.13;;
58338;SDS011;48278;52.704;6.536;2022-08-01T05:15:18;9.30;;;3.25;;
58338;SDS011;48278;52.704;6.536;2022-08-01T05:17:44;10.63;;;3.50;;
58338;SDS011;48278;52.704;6.536;2022-08-01T05:20:10;9.10;;;3.33;;
58338;SDS011;48278;52.704;6.536;2022-08-01T05:22:37;14.95;;;3.70;;
58338;SDS011;48278;52.704;6.536;2022-08-01T05:25:03;13.27;;;4.07;;
58338;SDS011;48278;52.704;6.536;2022-08-01T05:27:30;17.42;;;4.32;;
58338;SDS011;48278;52.704;6.536;2022-08-01T05:29:56;14.88;;;3.70;;
58338;SDS011;48278;52.704;6.536;2022-08-01T05:32:22;16.10;;;3.88;;
58338;SDS011;48278;52.704;6.536;2022-08-01T05:34:48;12.27;;;3.40;;
58338;SDS011;48278;52.704;6.536;2022-08-01T05:37:13;11.70;;;3.33;;
58338;SDS011;48278;52.704;6.536;2022-08-01T05:39:39;17.23;;;3.50;;
58338;SDS011;48278;52.704;6.536;2022-08-01T05:42:05;12.63;;;3.17;;
58338;SDS011;48278;52.704;6.536;2022-08-01T05:44:31;12.70;;;2.97;;
58338;SDS011;48278;52.704;6.536;2022-08-01T05:47:00;10.57;;;2.93;;
58338;SDS011;48278;52.704;6.536;2022-08-01T05:49:25;12.48;;;3.53;;
58338;SDS011;48278;52.704;6.536;2022-08-01T05:51:51;10.77;;;3.23;;
58338;SDS011;48278;52.704;6.536;2022-08-01T05:54:17;13.65;;;3.40;;
58338;SDS011;48278;52.704;6.536;2022-08-01T05:56:43;12.85;;;3.63;;
58338;SDS011;48278;52.704;6.536;2022-08-01T05:59:09;16.33;;;3.40;;
58338;SDS011;48278;52.704;6.536;2022-08-01T06:01:34;13.87;;;2.93;;
58338;SDS011;48278;52.704;6.536;2022-08-01T06:04:00;14.35;;;3.38;;
58338;SDS011;48278;52.704;6.536;2022-08-01T06:06:26;11.25;;;2.58;;
58338;SDS011;48278;52.704;6.536;2022-08-01T06:08:52;13.70;;;3.40;;
58338;SDS011;48278;52.704;6.536;2022-08-01T06:11:17;9.68;;;2.60;;
58338;SDS011;48278;52.704;6.536;2022-08-01T06:13:43;13.67;;;2.60;;
58338;SDS011;48278;52.704;6.536;2022-08-01T06:16:09;8.80;;;2.47;;
58338;SDS011;48278;52.704;6.536;2022-08-01T06:18:35;13.43;;;2.28;;
58338;SDS011;48278;52.704;6.536;2022-08-01T06:21:00;17.60;;;2.33;;
58338;SDS011;48278;52.704;6.536;2022-08-01T06:23:26;14.90;;;3.37;;
58338;SDS011;48278;52.704;6.536;2022-08-01T06:25:52;11.57;;;2.77;;
58338;SDS011;48278;52.704;6.536;2022-08-01T06:28:19;11.73;;;2.50;;
58338;SDS011;48278;52.704;6.536;2022-08-01T06:30:45;12.85;;;2.67;;
58338;SDS011;48278;52.704;6.536;2022-08-01T06:33:11;18.83;;;3.80;;
58338;SDS011;48278;52.704;6.536;2022-08-01T06:35:37;13.50;;;2.57;;
58338;SDS011;48278;52.704;6.536;2022-08-01T06:38:03;11.18;;;2.67;;
58338;SDS011;48278;52.704;6.536;2022-08-01T06:40:28;14.07;;;2.80;;
58338;SDS011;48278;52.704;6.536;2022-08-01T06:42:54;17.08;;;3.03;;
58338;SDS011;48278;52.704;6.536;2022-08-01T06:45:20;15.07;;;2.53;;
58338;SDS011;48278;52.704;6.536;2022-08-01T06:47:50;13.45;;;2.75;;
58338;SDS011;48278;52.704;6.536;2022-08-01T06:50:16;12.53;;;2.33;;
58338;SDS011;48278;52.704;6.536;2022-08-01T06:52:45;17.55;;;3.03;;
58338;SDS011;48278;52.704;6.536;2022-08-01T06:55:11;17.03;;;2.70;;
58338;SDS011;48278;52.704;6.536;2022-08-01T06:57:44;12.40;;;2.47;;
58338;SDS011;48278;52.704;6.536;2022-08-01T07:02:41;14.50;;;2.80;;
58338;SDS011;48278;52.704;6.536;2022-08-01T07:05:07;15.70;;;2.90;;
58338;SDS011;48278;52.704;6.536;2022-08-01T07:09:59;21.17;;;2.93;;
58338;SDS011;48278;52.704;6.536;2022-08-01T07:12:25;21.23;;;3.23;;
58338;SDS011;48278;52.704;6.536;2022-08-01T07:14:51;19.80;;;3.83;;
58338;SDS011;48278;52.704;6.536;2022-08-01T07:17:17;15.67;;;3.37;;
58338;SDS011;48278;52.704;6.536;2022-08-01T07:19:45;20.38;;;3.00;;
58338;SDS011;48278;52.704;6.536;2022-08-01T07:22:11;18.67;;;3.60;;
58338;SDS011;48278;52.704;6.536;2022-08-01T07:24:37;23.53;;;3.57;;
58338;SDS011;48278;52.704;6.536;2022-08-01T07:27:03;19.03;;;3.03;;
58338;SDS011;48278;52.704;6.536;2022-08-01T07:29:28;14.10;;;3.17;;
58338;SDS011;48278;52.704;6.536;2022-08-01T07:31:55;19.70;;;3.75;;
58338;SDS011;48278;52.704;6.536;2022-08-01T07:34:22;18.95;;;3.38;;
58338;SDS011;48278;52.704;6.536;2022-08-01T07:36:48;24.52;;;3.42;;
58338;SDS011;48278;52.704;6.536;2022-08-01T07:39:15;13.15;;;2.78;;
58338;SDS011;48278;52.704;6.536;2022-08-01T07:41:40;23.47;;;3.50;;
58338;SDS011;48278;52.704;6.536;2022-08-01T07:44:06;18.90;;;3.03;;
58338;SDS011;48278;52.704;6.536;2022-08-01T07:46:32;22.63;;;3.47;;
58338;SDS011;48278;52.704;6.536;2022-08-01T07:48:58;20.80;;;3.10;;
58338;SDS011;48278;52.704;6.536;2022-08-01T07:51:23;19.03;;;2.60;;
58338;SDS011;48278;52.704;6.536;2022-08-01T07:53:49;17.83;;;3.03;;
58338;SDS011;48278;52.704;6.536;2022-08-01T07:56:15;23.27;;;3.13;;
58338;SDS011;48278;52.704;6.536;2022-08-01T07:58:41;21.00;;;2.30;;
58338;SDS011;48278;52.704;6.536;2022-08-01T08:01:07;19.60;;;2.77;;
58338;SDS011;48278;52.704;6.536;2022-08-01T08:03:32;21.20;;;2.90;;
58338;SDS011;48278;52.704;6.536;2022-08-01T08:05:58;16.80;;;2.33;;
58338;SDS011;48278;52.704;6.536;2022-08-01T08:08:24;14.43;;;2.40;;
58338;SDS011;48278;52.704;6.536;2022-08-01T08:10:50;19.63;;;2.50;;
58338;SDS011;48278;52.704;6.536;2022-08-01T08:13:16;15.63;;;2.38;;
58338;SDS011;48278;52.704;6.536;2022-08-01T08:15:41;19.23;;;2.67;;
58338;SDS011;48278;52.704;6.536;2022-08-01T08:18:07;16.95;;;2.38;;
58338;SDS011;48278;52.704;6.536;2022-08-01T08:20:33;18.23;;;2.90;;
58338;SDS011;48278;52.704;6.536;2022-08-01T08:22:59;15.03;;;2.70;;
58338;SDS011;48278;52.704;6.536;2022-08-01T08:25:25;14.90;;;2.60;;
58338;SDS011;48278;52.704;6.536;2022-08-01T08:27:51;17.33;;;2.97;;
58338;SDS011;48278;52.704;6.536;2022-08-01T08:30:17;17.33;;;2.70;;
58338;SDS011;48278;52.704;6.536;2022-08-01T08:32:43;16.07;;;2.23;;
58338;SDS011;48278;52.704;6.536;2022-08-01T08:35:09;18.10;;;2.40;;
58338;SDS011;48278;52.704;6.536;2022-08-01T08:37:35;23.80;;;3.15;;
58338;SDS011;48278;52.704;6.536;2022-08-01T08:42:28;20.00;;;2.60;;
58338;SDS011;48278;52.704;6.536;2022-08-01T08:44:54;12.07;;;1.70;;
58338;SDS011;48278;52.704;6.536;2022-08-01T08:47:20;17.23;;;2.73;;
58338;SDS011;48278;52.704;6.536;2022-08-01T08:49:47;15.95;;;2.30;;
58338;SDS011;48278;52.704;6.536;2022-08-01T08:52:15;14.98;;;2.53;;
58338;SDS011;48278;52.704;6.536;2022-08-01T08:54:45;17.13;;;2.28;;
58338;SDS011;48278;52.704;6.536;2022-08-01T08:57:13;15.65;;;2.08;;
58338;SDS011;48278;52.704;6.536;2022-08-01T08:59:39;16.98;;;2.40;;
58338;SDS011;48278;52.704;6.536;2022-08-01T09:02:06;16.15;;;1.95;;
58338;SDS011;48278;52.704;6.536;2022-08-01T09:04:37;18.02;;;2.92;;
58338;SDS011;48278;52.704;6.536;2022-08-01T09:07:05;15.98;;;2.20;;
58338;SDS011;48278;52.704;6.536;2022-08-01T09:09:33;20.38;;;2.28;;
58338;SDS011;48278;52.704;6.536;2022-08-01T09:11:59;20.48;;;2.85;;
58338;SDS011;48278;52.704;6.536;2022-08-01T09:14:25;15.63;;;2.10;;
58338;SDS011;48278;52.704;6.536;2022-08-01T09:17:01;14.88;;;2.00;;
58338;SDS011;48278;52.704;6.536;2022-08-01T09:22:13;13.95;;;2.10;;
58338;SDS011;48278;52.704;6.536;2022-08-01T09:27:31;8.98;;;1.45;;
58338;SDS011;48278;52.704;6.536;2022-08-01T09:32:52;11.18;;;1.73;;
58338;SDS011;48278;52.704;6.536;2022-08-01T09:35:22;16.85;;;1.88;;
58338;SDS011;48278;52.704;6.536;2022-08-01T09:37:50;12.38;;;1.67;;
58338;SDS011;48278;52.704;6.536;2022-08-01T09:40:15;14.07;;;1.50;;
58338;SDS011;48278;52.704;6.536;2022-08-01T09:42:41;15.53;;;2.30;;
58338;SDS011;48278;52.704;6.536;2022-08-01T09:45:07;13.13;;;2.10;;
58338;SDS011;48278;52.704;6.536;2022-08-01T09:47:39;15.73;;;1.92;;
58338;SDS011;48278;52.704;6.536;2022-08-01T09:50:06;16.30;;;1.50;;
58338;SDS011;48278;52.704;6.536;2022-08-01T09:52:32;12.35;;;1.40;;
58338;SDS011;48278;52.704;6.536;2022-08-01T09:54:59;12.17;;;1.20;;
58338;SDS011;48278;52.704;6.536;2022-08-01T09:57:26;13.35;;;1.65;;
58338;SDS011;48278;52.704;6.536;2022-08-01T09:59:54;9.85;;;1.42;;
58338;SDS011;48278;52.704;6.536;2022-08-01T10:04:56;18.05;;;1.58;;
58338;SDS011;48278;52.704;6.536;2022-08-01T10:07:22;9.80;;;1.63;;
58338;SDS011;48278;52.704;6.536;2022-08-01T10:09:48;16.37;;;2.00;;
58338;SDS011;48278;52.704;6.536;2022-08-01T10:12:15;11.65;;;2.13;;
58338;SDS011;48278;52.704;6.536;2022-08-01T10:14:44;11.13;;;1.40;;
58338;SDS011;48278;52.704;6.536;2022-08-01T10:17:13;13.23;;;1.80;;
58338;SDS011;48278;52.704;6.536;2022-08-01T10:19:41;17.02;;;1.50;;
58338;SDS011;48278;52.704;6.536;2022-08-01T10:22:09;10.68;;;1.48;;
58338;SDS011;48278;52.704;6.536;2022-08-01T10:24:43;11.02;;;1.50;;
58338;SDS011;48278;52.704;6.536;2022-08-01T10:27:11;10.07;;;1.55;;
58338;SDS011;48278;52.704;6.536;2022-08-01T10:32:09;8.82;;;1.33;;
58338;SDS011;48278;52.704;6.536;2022-08-01T10:34:36;9.07;;;1.00;;
58338;SDS011;48278;52.704;6.536;2022-08-01T10:39:30;7.90;;;0.95;;
58338;SDS011;48278;52.704;6.536;2022-08-01T10:41:56;7.13;;;1.20;;
58338;SDS011;48278;52.704;6.536;2022-08-01T10:44:26;11.80;;;1.20;;
58338;SDS011;48278;52.704;6.536;2022-08-01T10:47:10;10.10;;;1.30;;
58338;SDS011;48278;52.704;6.536;2022-08-01T10:50:03;7.78;;;1.30;;
58338;SDS011;48278;52.704;6.536;2022-08-01T10:52:38;7.10;;;0.90;;
58338;SDS011;48278;52.704;6.536;2022-08-01T10:55:08;9.23;;;1.00;;
58338;SDS011;48278;52.704;6.536;2022-08-01T10:57:45;5.38;;;0.77;;
58338;SDS011;48278;52.704;6.536;2022-08-01T11:00:19;10.50;;;1.40;;
58338;SDS011;48278;52.704;6.536;2022-08-01T11:02:58;9.40;;;1.30;;
58338;SDS011;48278;52.704;6.536;2022-08-01T11:05:26;8.43;;;1.15;;
58338;SDS011;48278;52.704;6.536;2022-08-01T11:07:55;6.18;;;0.82;;
58338;SDS011;48278;52.704;6.536;2022-08-01T11:10:43;5.07;;;0.70;;
58338;SDS011;48278;52.704;6.536;2022-08-01T11:13:09;5.15;;;1.15;;
58338;SDS011;48278;52.704;6.536;2022-08-01T11:15:39;11.25;;;1.70;;
58338;SDS011;48278;52.704;6.536;2022-08-01T11:20:55;6.53;;;1.05;;
58338;SDS011;48278;52.704;6.536;2022-08-01T11:23:23;11.55;;;1.00;;
58338;SDS011;48278;52.704;6.536;2022-08-01T11:28:21;7.13;;;1.10;;
58338;SDS011;48278;52.704;6.536;2022-08-01T11:31:24;7.22;;;0.98;;
58338;SDS011;48278;52.704;6.536;2022-08-01T11:38:35;7.33;;;0.77;;
58338;SDS011;48278;52.704;6.536;2022-08-01T11:41:12;6.68;;;0.90;;
58338;SDS011;48278;52.704;6.536;2022-08-01T11:46:50;10.90;;;0.75;;
58338;SDS011;48278;52.704;6.536;2022-08-01T11:54:37;5.60;;;0.73;;
58338;SDS011;48278;52.704;6.536;2022-08-01T11:57:40;7.20;;;0.80;;
58338;SDS011;48278;52.704;6.536;2022-08-01T12:02:39;6.50;;;0.98;;
58338;SDS011;48278;52.704;6.536;2022-08-01T12:05:08;7.93;;;1.60;;
58338;SDS011;48278;52.704;6.536;2022-08-01T12:07:37;8.35;;;1.30;;
58338;SDS011;48278;52.704;6.536;2022-08-01T12:10:05;7.10;;;2.03;;
58338;SDS011;48278;52.704;6.536;2022-08-01T12:12:32;7.10;;;0.80;;
58338;SDS011;48278;52.704;6.536;2022-08-01T12:15:00;10.05;;;1.15;;
58338;SDS011;48278;52.704;6.536;2022-08-01T12:17:37;7.03;;;0.90;;
58338;SDS011;48278;52.704;6.536;2022-08-01T12:20:12;9.45;;;0.88;;
58338;SDS011;48278;52.704;6.536;2022-08-01T12:22:39;10.73;;;1.25;;
58338;SDS011;48278;52.704;6.536;2022-08-01T12:27:32;8.32;;;0.65;;
58338;SDS011;48278;52.704;6.536;2022-08-01T12:29:58;7.70;;;1.02;;
58338;SDS011;48278;52.704;6.536;2022-08-01T12:34:51;6.80;;;0.77;;
58338;SDS011;48278;52.704;6.536;2022-08-01T12:37:17;5.90;;;0.77;;
58338;SDS011;48278;52.704;6.536;2022-08-01T12:39:44;6.28;;;1.00;;
58338;SDS011;48278;52.704;6.536;2022-08-01T12:44:37;7.75;;;0.80;;
58338;SDS011;48278;52.704;6.536;2022-08-01T12:47:04;7.88;;;1.10;;
58338;SDS011;48278;52.704;6.536;2022-08-01T12:49:35;4.68;;;0.60;;
58338;SDS011;48278;52.704;6.536;2022-08-01T12:52:01;4.57;;;0.60;;
58338;SDS011;48278;52.704;6.536;2022-08-01T12:56:54;6.07;;;0.80;;
58338;SDS011;48278;52.704;6.536;2022-08-01T12:59:23;8.30;;;0.80;;
58338;SDS011;48278;52.704;6.536;2022-08-01T13:01:52;7.38;;;0.93;;
58338;SDS011;48278;52.704;6.536;2022-08-01T13:04:21;6.55;;;0.90;;
58338;SDS011;48278;52.704;6.536;2022-08-01T13:06:48;10.52;;;1.00;;
58338;SDS011;48278;52.704;6.536;2022-08-01T13:09:17;8.07;;;1.05;;
58338;SDS011;48278;52.704;6.536;2022-08-01T13:11:43;7.07;;;0.80;;
58338;SDS011;48278;52.704;6.536;2022-08-01T13:14:11;8.93;;;0.90;;
58338;SDS011;48278;52.704;6.536;2022-08-01T13:16:52;9.23;;;0.85;;
58338;SDS011;48278;52.704;6.536;2022-08-01T13:19:17;5.70;;;0.90;;
58338;SDS011;48278;52.704;6.536;2022-08-01T13:21:53;8.77;;;1.23;;
58338;SDS011;48278;52.704;6.536;2022-08-01T13:24:26;9.57;;;1.00;;
58338;SDS011;48278;52.704;6.536;2022-08-01T13:26:57;7.13;;;0.90;;
58338;SDS011;48278;52.704;6.536;2022-08-01T13:29:37;9.02;;;0.85;;
58338;SDS011;48278;52.704;6.536;2022-08-01T13:32:14;5.60;;;0.80;;
58338;SDS011;48278;52.704;6.536;2022-08-01T13:34:44;7.82;;;0.60;;
58338;SDS011;48278;52.704;6.536;2022-08-01T13:37:10;5.93;;;1.00;;
58338;SDS011;48278;52.704;6.536;2022-08-01T13:39:36;7.80;;;1.00;;
58338;SDS011;48278;52.704;6.536;2022-08-01T13:42:13;8.32;;;1.10;;
58338;SDS011;48278;52.704;6.536;2022-08-01T13:44:40;7.45;;;0.80;;
58338;SDS011;48278;52.704;6.536;2022-08-01T13:47:06;6.78;;;0.80;;
58338;SDS011;48278;52.704;6.536;2022-08-01T13:49:32;9.35;;;0.80;;
58338;SDS011;48278;52.704;6.536;2022-08-01T13:51:59;5.53;;;0.80;;
58338;SDS011;48278;52.704;6.536;2022-08-01T13:54:25;6.93;;;0.90;;
58338;SDS011;48278;52.704;6.536;2022-08-01T13:56:51;9.35;;;0.80;;
58338;SDS011;48278;52.704;6.536;2022-08-01T13:59:18;7.85;;;0.60;;
58338;SDS011;48278;52.704;6.536;2022-08-01T14:01:44;8.73;;;0.87;;
58338;SDS011;48278;52.704;6.536;2022-08-01T14:04:11;5.43;;;0.80;;
58338;SDS011;48278;52.704;6.536;2022-08-01T14:06:37;5.95;;;0.70;;
58338;SDS011;48278;52.704;6.536;2022-08-01T14:09:03;5.60;;;0.70;;
58338;SDS011;48278;52.704;6.536;2022-08-01T14:11:29;4.57;;;0.70;;
58338;SDS011;48278;52.704;6.536;2022-08-01T14:13:55;11.27;;;1.00;;
58338;SDS011;48278;52.704;6.536;2022-08-01T14:16:21;7.13;;;0.83;;
58338;SDS011;48278;52.704;6.536;2022-08-01T14:18:47;4.75;;;0.70;;
58338;SDS011;48278;52.704;6.536;2022-08-01T14:21:13;6.37;;;0.60;;
58338;SDS011;48278;52.704;6.536;2022-08-01T14:26:05;4.63;;;0.90;;
58338;SDS011;48278;52.704;6.536;2022-08-01T14:28:31;10.30;;;0.90;;
58338;SDS011;48278;52.704;6.536;2022-08-01T14:30:58;6.28;;;0.70;;
58338;SDS011;48278;52.704;6.536;2022-08-01T14:33:24;8.60;;;0.60;;
58338;SDS011;48278;52.704;6.536;2022-08-01T14:35:51;3.60;;;0.80;;
58338;SDS011;48278;52.704;6.536;2022-08-01T14:38:17;7.27;;;0.90;;
58338;SDS011;48278;52.704;6.536;2022-08-01T14:40:42;5.57;;;1.00;;
58338;SDS011;48278;52.704;6.536;2022-08-01T14:43:08;8.38;;;0.60;;
58338;SDS011;48278;52.704;6.536;2022-08-01T14:45:34;4.53;;;0.60;;
58338;SDS011;48278;52.704;6.536;2022-08-01T14:48:00;5.47;;;0.50;;
58338;SDS011;48278;52.704;6.536;2022-08-01T14:50:26;5.43;;;0.60;;
58338;SDS011;48278;52.704;6.536;2022-08-01T14:52:53;4.88;;;0.50;;
58338;SDS011;48278;52.704;6.536;2022-08-01T14:55:18;6.35;;;0.70;;
58338;SDS011;48278;52.704;6.536;2022-08-01T14:57:48;6.22;;;0.65;;
58338;SDS011;48278;52.704;6.536;2022-08-01T15:00:14;5.05;;;0.50;;
58338;SDS011;48278;52.704;6.536;2022-08-01T15:02:40;5.53;;;0.63;;
58338;SDS011;48278;52.704;6.536;2022-08-01T15:05:07;8.10;;;0.85;;
58338;SDS011;48278;52.704;6.536;2022-08-01T15:07:33;9.43;;;0.63;;
58338;SDS011;48278;52.704;6.536;2022-08-01T15:09:59;5.65;;;0.80;;
58338;SDS011;48278;52.704;6.536;2022-08-01T15:12:25;4.55;;;0.40;;
58338;SDS011;48278;52.704;6.536;2022-08-01T15:14:51;6.27;;;0.70;;
58338;SDS011;48278;52.704;6.536;2022-08-01T15:17:18;4.83;;;0.50;;
58338;SDS011;48278;52.704;6.536;2022-08-01T15:19:53;6.40;;;0.75;;
58338;SDS011;48278;52.704;6.536;2022-08-01T15:22:20;4.47;;;0.50;;
58338;SDS011;48278;52.704;6.536;2022-08-01T15:24:47;6.45;;;0.50;;
58338;SDS011;48278;52.704;6.536;2022-08-01T15:27:14;7.50;;;0.80;;
58338;SDS011;48278;52.704;6.536;2022-08-01T15:29:40;6.20;;;0.73;;
58338;SDS011;48278;52.704;6.536;2022-08-01T15:34:33;6.15;;;0.90;;
58338;SDS011;48278;52.704;6.536;2022-08-01T15:37:00;9.50;;;0.70;;
58338;SDS011;48278;52.704;6.536;2022-08-01T15:39:26;6.68;;;0.65;;
58338;SDS011;48278;52.704;6.536;2022-08-01T15:41:52;5.35;;;0.60;;
58338;SDS011;48278;52.704;6.536;2022-08-01T15:44:18;6.23;;;0.60;;
58338;SDS011;48278;52.704;6.536;2022-08-01T15:46:48;6.35;;;0.80;;
58338;SDS011;48278;52.704;6.536;2022-08-01T15:49:15;8.30;;;0.88;;
58338;SDS011;48278;52.704;6.536;2022-08-01T15:51:41;8.43;;;0.57;;
58338;SDS011;48278;52.704;6.536;2022-08-01T15:54:08;11.32;;;0.70;;
58338;SDS011;48278;52.704;6.536;2022-08-01T15:56:34;4.50;;;0.55;;
58338;SDS011;48278;52.704;6.536;2022-08-01T15:59:00;4.88;;;0.60;;
58338;SDS011;48278;52.704;6.536;2022-08-01T16:01:26;7.33;;;0.67;;
58338;SDS011;48278;52.704;6.536;2022-08-01T16:03:52;5.03;;;0.83;;
58338;SDS011;48278;52.704;6.536;2022-08-01T16:06:19;8.13;;;0.70;;
58338;SDS011;48278;52.704;6.536;2022-08-01T16:08:45;6.45;;;0.80;;